KJYR

York Municipal Airport

York, Nebraska, USA
METAR KJYR 222115Z AUTO 05011KT 10SM CLR 19/M03 A3015 RMK AO2
Observed Flight Rules
Oct-22 @ 21:15 UTC (16 minutes ago) Visual Flight Rules
Wind Visibility Clouds
50° at 11 knots 10 miles
  • Clear skies
Temperatures Readings
Current 19°C / 66°F
Dewpoint -3°C / 27°F
Humidity 22%
Altimeter 30.15" Hg
Pressure 1021 hPa
Elevation 509
METAR KJYR 222115Z AUTO 05011KT 10SM CLR 19/M03 A3015 RMK AO2
Observed Flight Rules
Oct-22 @ 21:15 UTC
(16 minutes ago)
VFR
Wind Visibility
50° at 11 knots 10 miles
Clouds
  • Clear skies
Temperature Dewpoint
19°C / 66°F -3°C / 27°F
Humidity Altimeter Pressure
22% 30.15" Hg 1021 hPa